CheckWX is a tool to help pilots better visualize weather data.  It is not intended as a substitute for an official pre-flight weather briefing.

00:55:15 UTC

KDTN METAR
Shreveport Downtown Airport
Shreveport, Louisiana, USA
Current

1 hour ago

KDTN 232353Z 18009KT 10SM OVC100 24/08 A3006 RMK AO2 SLP177 T02390083 10256 20211 55008
Observed
Mar-23 @ 23:53 UTC
Wind
  • 180° at 9 KTS
Visibility
10 SM
Flight Rules
VFR
Cloud Levels
  • Overcast at 10,000' AGL
Temperature
24°C / 75°F
Dewpoint
C / 46°F
Humidity
36%
Altimeter
30.06" Hg
Pressure
1017.7 hPa
Previous

2 hours ago

KDTN 232253Z 20010KT 10SM CLR 24/08 A3006 RMK AO2 SLP176 T02390083
Observed
Mar-23 @ 22:53 UTC
Wind
  • 200° at 10 KTS
Visibility
10 SM
Flight Rules
VFR
Cloud Levels
  • Clear skies
Temperature
24°C / 75°F
Dewpoint
C / 46°F
Humidity
36%
Altimeter
30.06" Hg
Pressure
1017.6 hPa
Previous

3 hours ago

KDTN 232153Z 18010KT 10SM CLR 25/08 A3006 RMK AO2 SLP178 T02500083
Observed
Mar-23 @ 21:53 UTC
Wind
  • 180° at 10 KTS
Visibility
10 SM
Flight Rules
VFR
Cloud Levels
  • Clear skies
Temperature
25°C / 77°F
Dewpoint
C / 46°F
Humidity
34%
Altimeter
30.06" Hg
Pressure
1017.8 hPa